sensor_id;sensor_type;location;lat;lon;timestamp;temperature;humidity
35541;DHT22;21650;48.840;9.162;2022-09-09T00:04:08;16.00;99.90
35541;DHT22;21650;48.840;9.162;2022-09-09T00:06:50;15.90;99.90
35541;DHT22;21650;48.840;9.162;2022-09-09T00:09:22;15.90;99.90
35541;DHT22;21650;48.840;9.162;2022-09-09T00:14:26;15.80;99.90
35541;DHT22;21650;48.840;9.162;2022-09-09T00:17:02;15.80;99.90
35541;DHT22;21650;48.840;9.162;2022-09-09T00:19:46;15.90;99.90
35541;DHT22;21650;48.840;9.162;2022-09-09T00:22:21;15.90;99.90
35541;DHT22;21650;48.840;9.162;2022-09-09T00:24:55;16.00;99.90
35541;DHT22;21650;48.840;9.162;2022-09-09T00:27:40;15.90;99.90
35541;DHT22;21650;48.840;9.162;2022-09-09T00:32:50;16.10;99.90
35541;DHT22;21650;48.840;9.162;2022-09-09T00:35:29;16.10;99.90
35541;DHT22;21650;48.840;9.162;2022-09-09T00:38:00;16.10;99.90
35541;DHT22;21650;48.840;9.162;2022-09-09T00:40:34;16.10;99.90
35541;DHT22;21650;48.840;9.162;2022-09-09T00:43:24;16.10;99.90
35541;DHT22;21650;48.840;9.162;2022-09-09T00:49:05;16.20;99.90
35541;DHT22;21650;48.840;9.162;2022-09-09T00:52:02;16.20;99.90
35541;DHT22;21650;48.840;9.162;2022-09-09T00:57:27;16.20;99.90
35541;DHT22;21650;48.840;9.162;2022-09-09T01:00:18;16.20;99.90
35541;DHT22;21650;48.840;9.162;2022-09-09T01:08:02;16.40;99.90
35541;DHT22;21650;48.840;9.162;2022-09-09T01:13:20;16.40;99.90
35541;DHT22;21650;48.840;9.162;2022-09-09T01:15:47;16.30;99.90
35541;DHT22;21650;48.840;9.162;2022-09-09T01:18:16;16.30;99.90
35541;DHT22;21650;48.840;9.162;2022-09-09T01:21:05;16.40;99.90
35541;DHT22;21650;48.840;9.162;2022-09-09T01:28:46;16.40;99.90
35541;DHT22;21650;48.840;9.162;2022-09-09T01:31:17;16.30;99.90
35541;DHT22;21650;48.840;9.162;2022-09-09T01:33:43;16.30;99.90
35541;DHT22;21650;48.840;9.162;2022-09-09T01:36:20;16.30;99.90
35541;DHT22;21650;48.840;9.162;2022-09-09T01:38:47;16.30;99.90
35541;DHT22;21650;48.840;9.162;2022-09-09T01:41:12;16.30;99.90
35541;DHT22;21650;48.840;9.162;2022-09-09T01:43:38;16.30;99.90
35541;DHT22;21650;48.840;9.162;2022-09-09T01:46:04;16.30;99.90
35541;DHT22;21650;48.840;9.162;2022-09-09T01:48:30;16.30;99.90
35541;DHT22;21650;48.840;9.162;2022-09-09T01:50:56;16.30;99.90
35541;DHT22;21650;48.840;9.162;2022-09-09T01:53:22;16.30;99.90
35541;DHT22;21650;48.840;9.162;2022-09-09T01:56:29;16.30;99.90
35541;DHT22;21650;48.840;9.162;2022-09-09T01:59:23;16.30;99.90
35541;DHT22;21650;48.840;9.162;2022-09-09T02:02:18;16.20;99.90
35541;DHT22;21650;48.840;9.162;2022-09-09T02:04:56;16.20;99.90
35541;DHT22;21650;48.840;9.162;2022-09-09T02:12:43;16.00;99.90
35541;DHT22;21650;48.840;9.162;2022-09-09T02:15:21;15.90;99.90
35541;DHT22;21650;48.840;9.162;2022-09-09T02:17:50;15.80;99.90
35541;DHT22;21650;48.840;9.162;2022-09-09T02:20:18;15.80;99.90
35541;DHT22;21650;48.840;9.162;2022-09-09T02:22:47;15.70;99.90
35541;DHT22;21650;48.840;9.162;2022-09-09T02:25:18;15.80;99.90
35541;DHT22;21650;48.840;9.162;2022-09-09T02:27:46;15.80;99.90
35541;DHT22;21650;48.840;9.162;2022-09-09T02:30:13;15.80;99.90
35541;DHT22;21650;48.840;9.162;2022-09-09T02:32:41;15.90;99.90
35541;DHT22;21650;48.840;9.162;2022-09-09T02:35:12;15.90;99.90
35541;DHT22;21650;48.840;9.162;2022-09-09T02:37:39;15.90;99.90
35541;DHT22;21650;48.840;9.162;2022-09-09T02:40:09;15.80;99.90
35541;DHT22;21650;48.840;9.162;2022-09-09T02:42:45;15.90;99.90
35541;DHT22;21650;48.840;9.162;2022-09-09T02:45:16;15.80;99.90
35541;DHT22;21650;48.840;9.162;2022-09-09T02:50:26;15.80;99.90
35541;DHT22;21650;48.840;9.162;2022-09-09T02:58:13;15.60;99.90
35541;DHT22;21650;48.840;9.162;2022-09-09T03:00:43;15.60;99.90
35541;DHT22;21650;48.840;9.162;2022-09-09T03:03:09;15.50;99.90
35541;DHT22;21650;48.840;9.162;2022-09-09T03:05:35;15.50;99.90
35541;DHT22;21650;48.840;9.162;2022-09-09T03:08:01;15.50;99.90
35541;DHT22;21650;48.840;9.162;2022-09-09T03:10:27;15.50;99.90
35541;DHT22;21650;48.840;9.162;2022-09-09T03:12:53;15.70;99.90
35541;DHT22;21650;48.840;9.162;2022-09-09T03:15:18;15.60;99.90
35541;DHT22;21650;48.840;9.162;2022-09-09T03:17:44;15.50;99.90
35541;DHT22;21650;48.840;9.162;2022-09-09T03:20:10;15.40;99.90
35541;DHT22;21650;48.840;9.162;2022-09-09T03:22:35;15.40;99.90
35541;DHT22;21650;48.840;9.162;2022-09-09T03:25:01;15.40;99.90
35541;DHT22;21650;48.840;9.162;2022-09-09T03:27:28;15.30;99.90
35541;DHT22;21650;48.840;9.162;2022-09-09T03:29:54;15.20;99.90
35541;DHT22;21650;48.840;9.162;2022-09-09T03:32:21;15.30;99.90
35541;DHT22;21650;48.840;9.162;2022-09-09T03:34:48;15.30;99.90
35541;DHT22;21650;48.840;9.162;2022-09-09T03:37:16;15.30;99.90
35541;DHT22;21650;48.840;9.162;2022-09-09T03:39:43;15.30;99.90
35541;DHT22;21650;48.840;9.162;2022-09-09T03:42:08;15.20;99.90
35541;DHT22;21650;48.840;9.162;2022-09-09T03:44:34;15.20;99.90
35541;DHT22;21650;48.840;9.162;2022-09-09T03:46:59;15.20;99.90
35541;DHT22;21650;48.840;9.162;2022-09-09T03:49:26;15.20;99.90
35541;DHT22;21650;48.840;9.162;2022-09-09T03:51:55;15.20;99.90
35541;DHT22;21650;48.840;9.162;2022-09-09T03:54:22;15.20;99.90
35541;DHT22;21650;48.840;9.162;2022-09-09T03:56:48;15.30;99.90
35541;DHT22;21650;48.840;9.162;2022-09-09T03:59:13;15.30;99.90
35541;DHT22;21650;48.840;9.162;2022-09-09T04:01:39;15.20;99.90
35541;DHT22;21650;48.840;9.162;2022-09-09T04:04:05;15.40;99.90
35541;DHT22;21650;48.840;9.162;2022-09-09T04:06:31;15.40;99.90
35541;DHT22;21650;48.840;9.162;2022-09-09T04:08:56;15.50;99.90
35541;DHT22;21650;48.840;9.162;2022-09-09T04:11:22;15.60;99.90
35541;DHT22;21650;48.840;9.162;2022-09-09T04:13:48;15.60;99.90
35541;DHT22;21650;48.840;9.162;2022-09-09T04:16:14;15.60;99.90
35541;DHT22;21650;48.840;9.162;2022-09-09T04:18:40;15.70;99.90
35541;DHT22;21650;48.840;9.162;2022-09-09T04:21:06;15.70;99.90
35541;DHT22;21650;48.840;9.162;2022-09-09T04:23:33;15.70;99.90
35541;DHT22;21650;48.840;9.162;2022-09-09T04:26:01;15.70;99.90
35541;DHT22;21650;48.840;9.162;2022-09-09T04:28:33;15.70;99.90
35541;DHT22;21650;48.840;9.162;2022-09-09T04:31:11;15.70;99.90
35541;DHT22;21650;48.840;9.162;2022-09-09T04:33:38;15.60;99.90
35541;DHT22;21650;48.840;9.162;2022-09-09T04:36:04;15.50;99.90
35541;DHT22;21650;48.840;9.162;2022-09-09T04:38:30;15.60;99.90
35541;DHT22;21650;48.840;9.162;2022-09-09T04:40:56;15.60;99.90
35541;DHT22;21650;48.840;9.162;2022-09-09T04:43:22;15.60;99.90
35541;DHT22;21650;48.840;9.162;2022-09-09T04:45:49;15.60;99.90
35541;DHT22;21650;48.840;9.162;2022-09-09T04:48:15;15.50;99.90
35541;DHT22;21650;48.840;9.162;2022-09-09T04:50:40;15.50;99.90
35541;DHT22;21650;48.840;9.162;2022-09-09T04:53:07;15.50;99.90
35541;DHT22;21650;48.840;9.162;2022-09-09T04:55:33;15.50;99.90
35541;DHT22;21650;48.840;9.162;2022-09-09T04:58:07;15.50;99.90
35541;DHT22;21650;48.840;9.162;2022-09-09T05:03:11;15.40;99.90
35541;DHT22;21650;48.840;9.162;2022-09-09T05:05:37;15.50;99.90
35541;DHT22;21650;48.840;9.162;2022-09-09T05:08:05;15.40;99.90
35541;DHT22;21650;48.840;9.162;2022-09-09T05:10:32;15.40;99.90
35541;DHT22;21650;48.840;9.162;2022-09-09T05:12:58;15.40;99.90
35541;DHT22;21650;48.840;9.162;2022-09-09T05:15:24;15.40;99.90
35541;DHT22;21650;48.840;9.162;2022-09-09T05:17:50;15.30;99.90
35541;DHT22;21650;48.840;9.162;2022-09-09T05:20:17;15.30;99.90
35541;DHT22;21650;48.840;9.162;2022-09-09T05:22:44;15.40;99.90
35541;DHT22;21650;48.840;9.162;2022-09-09T05:25:09;15.50;99.90
35541;DHT22;21650;48.840;9.162;2022-09-09T05:27:35;15.50;99.90
35541;DHT22;21650;48.840;9.162;2022-09-09T05:30:00;15.50;99.90
35541;DHT22;21650;48.840;9.162;2022-09-09T05:32:26;15.50;99.90
35541;DHT22;21650;48.840;9.162;2022-09-09T05:34:52;15.60;99.90
35541;DHT22;21650;48.840;9.162;2022-09-09T05:37:18;15.60;99.90
35541;DHT22;21650;48.840;9.162;2022-09-09T05:39:43;15.70;99.90
35541;DHT22;21650;48.840;9.162;2022-09-09T05:42:09;15.80;99.90
35541;DHT22;21650;48.840;9.162;2022-09-09T05:44:35;15.80;99.90
35541;DHT22;21650;48.840;9.162;2022-09-09T05:47:01;15.80;99.90
35541;DHT22;21650;48.840;9.162;2022-09-09T05:49:26;15.90;99.90
35541;DHT22;21650;48.840;9.162;2022-09-09T05:51:52;15.90;99.90
35541;DHT22;21650;48.840;9.162;2022-09-09T05:54:18;16.00;99.90
35541;DHT22;21650;48.840;9.162;2022-09-09T05:56:44;16.10;99.90
35541;DHT22;21650;48.840;9.162;2022-09-09T05:59:10;16.10;99.90
35541;DHT22;21650;48.840;9.162;2022-09-09T06:01:37;16.00;99.90
35541;DHT22;21650;48.840;9.162;2022-09-09T06:04:06;16.00;99.90
35541;DHT22;21650;48.840;9.162;2022-09-09T06:06:34;16.10;99.90
35541;DHT22;21650;48.840;9.162;2022-09-09T06:09:03;16.20;99.90
35541;DHT22;21650;48.840;9.162;2022-09-09T06:11:33;16.20;99.90
35541;DHT22;21650;48.840;9.162;2022-09-09T06:13:59;16.20;99.90
35541;DHT22;21650;48.840;9.162;2022-09-09T06:16:27;16.30;99.90
35541;DHT22;21650;48.840;9.162;2022-09-09T06:18:54;16.40;99.90
35541;DHT22;21650;48.840;9.162;2022-09-09T06:21:25;16.40;99.90
35541;DHT22;21650;48.840;9.162;2022-09-09T06:23:51;16.40;99.90
35541;DHT22;21650;48.840;9.162;2022-09-09T06:26:37;16.40;99.90
35541;DHT22;21650;48.840;9.162;2022-09-09T06:29:06;16.40;99.90
35541;DHT22;21650;48.840;9.162;2022-09-09T06:31:34;16.50;99.90
35541;DHT22;21650;48.840;9.162;2022-09-09T06:34:00;16.50;99.90
35541;DHT22;21650;48.840;9.162;2022-09-09T06:36:33;16.60;99.90
35541;DHT22;21650;48.840;9.162;2022-09-09T06:39:00;16.60;99.90
35541;DHT22;21650;48.840;9.162;2022-09-09T06:41:28;16.70;99.90
35541;DHT22;21650;48.840;9.162;2022-09-09T06:43:54;16.70;99.90
35541;DHT22;21650;48.840;9.162;2022-09-09T06:46:25;16.80;99.90
35541;DHT22;21650;48.840;9.162;2022-09-09T06:48:56;16.80;99.90
35541;DHT22;21650;48.840;9.162;2022-09-09T06:51:23;16.90;99.90
35541;DHT22;21650;48.840;9.162;2022-09-09T06:53:55;17.00;99.90
35541;DHT22;21650;48.840;9.162;2022-09-09T06:56:23;17.00;99.90
35541;DHT22;21650;48.840;9.162;2022-09-09T06:58:51;17.00;99.90
35541;DHT22;21650;48.840;9.162;2022-09-09T07:01:21;17.20;99.90
35541;DHT22;21650;48.840;9.162;2022-09-09T07:03:49;17.20;99.90
35541;DHT22;21650;48.840;9.162;2022-09-09T07:06:18;17.30;99.90
35541;DHT22;21650;48.840;9.162;2022-09-09T07:08:48;17.30;99.90
35541;DHT22;21650;48.840;9.162;2022-09-09T07:11:14;17.40;99.90
35541;DHT22;21650;48.840;9.162;2022-09-09T07:13:40;17.40;99.90
35541;DHT22;21650;48.840;9.162;2022-09-09T07:16:07;17.50;99.90
35541;DHT22;21650;48.840;9.162;2022-09-09T07:18:34;17.60;99.90
35541;DHT22;21650;48.840;9.162;2022-09-09T07:21:00;17.50;99.90
35541;DHT22;21650;48.840;9.162;2022-09-09T07:23:28;17.60;99.90
35541;DHT22;21650;48.840;9.162;2022-09-09T07:25:53;17.70;99.90
35541;DHT22;21650;48.840;9.162;2022-09-09T07:28:20;17.70;99.90
35541;DHT22;21650;48.840;9.162;2022-09-09T07:31:04;17.70;99.90
35541;DHT22;21650;48.840;9.162;2022-09-09T07:33:32;17.80;99.90
35541;DHT22;21650;48.840;9.162;2022-09-09T07:36:12;17.80;99.90
35541;DHT22;21650;48.840;9.162;2022-09-09T07:38:40;17.90;99.90
35541;DHT22;21650;48.840;9.162;2022-09-09T07:41:08;18.00;99.90
35541;DHT22;21650;48.840;9.162;2022-09-09T07:43:38;18.10;99.90
35541;DHT22;21650;48.840;9.162;2022-09-09T07:46:04;18.30;99.90
35541;DHT22;21650;48.840;9.162;2022-09-09T07:48:31;18.40;99.90
35541;DHT22;21650;48.840;9.162;2022-09-09T07:51:15;18.50;99.90
35541;DHT22;21650;48.840;9.162;2022-09-09T07:53:46;18.40;99.90
35541;DHT22;21650;48.840;9.162;2022-09-09T07:56:14;18.30;99.90
35541;DHT22;21650;48.840;9.162;2022-09-09T07:58:44;18.30;99.90
35541;DHT22;21650;48.840;9.162;2022-09-09T08:01:12;18.40;99.90
35541;DHT22;21650;48.840;9.162;2022-09-09T08:03:38;18.60;99.90
35541;DHT22;21650;48.840;9.162;2022-09-09T08:06:05;18.70;99.90
35541;DHT22;21650;48.840;9.162;2022-09-09T08:08:33;18.70;99.90
35541;DHT22;21650;48.840;9.162;2022-09-09T08:11:17;18.90;99.90
35541;DHT22;21650;48.840;9.162;2022-09-09T08:13:43;18.90;99.90
35541;DHT22;21650;48.840;9.162;2022-09-09T08:16:16;19.00;99.90
35541;DHT22;21650;48.840;9.162;2022-09-09T08:18:42;19.00;99.90
35541;DHT22;21650;48.840;9.162;2022-09-09T08:21:16;19.20;99.90
35541;DHT22;21650;48.840;9.162;2022-09-09T08:23:44;19.30;99.90
35541;DHT22;21650;48.840;9.162;2022-09-09T08:26:27;19.30;99.90
35541;DHT22;21650;48.840;9.162;2022-09-09T08:28:56;19.40;99.90
35541;DHT22;21650;48.840;9.162;2022-09-09T08:31:22;19.50;99.90
35541;DHT22;21650;48.840;9.162;2022-09-09T08:33:49;19.50;99.90
35541;DHT22;21650;48.840;9.162;2022-09-09T08:36:17;19.70;99.90
35541;DHT22;21650;48.840;9.162;2022-09-09T08:38:43;19.70;99.90
35541;DHT22;21650;48.840;9.162;2022-09-09T08:43:46;19.40;99.90
35541;DHT22;21650;48.840;9.162;2022-09-09T08:49:22;19.50;99.90
35541;DHT22;21650;48.840;9.162;2022-09-09T08:51:53;20.30;99.90
35541;DHT22;21650;48.840;9.162;2022-09-09T08:54:20;20.10;99.90
35541;DHT22;21650;48.840;9.162;2022-09-09T08:56:47;21.00;99.90
35541;DHT22;21650;48.840;9.162;2022-09-09T08:59:15;20.70;99.90
35541;DHT22;21650;48.840;9.162;2022-09-09T09:10:09;20.90;99.90
35541;DHT22;21650;48.840;9.162;2022-09-09T09:12:42;20.70;99.90
35541;DHT22;21650;48.840;9.162;2022-09-09T09:17:42;21.20;99.90
35541;DHT22;21650;48.840;9.162;2022-09-09T09:20:13;21.00;99.90
35541;DHT22;21650;48.840;9.162;2022-09-09T09:22:51;21.20;99.90
35541;DHT22;21650;48.840;9.162;2022-09-09T09:25:30;20.80;99.90
35541;DHT22;21650;48.840;9.162;2022-09-09T09:28:01;20.50;99.90
35541;DHT22;21650;48.840;9.162;2022-09-09T09:30:38;20.30;99.90
35541;DHT22;21650;48.840;9.162;2022-09-09T09:33:50;20.20;99.90
35541;DHT22;21650;48.840;9.162;2022-09-09T09:36:16;20.20;99.90
35541;DHT22;21650;48.840;9.162;2022-09-09T09:38:56;20.00;99.90
35541;DHT22;21650;48.840;9.162;2022-09-09T09:41:38;19.90;99.90
35541;DHT22;21650;48.840;9.162;2022-09-09T09:44:06;20.00;99.90
35541;DHT22;21650;48.840;9.162;2022-09-09T09:46:46;20.60;99.90
35541;DHT22;21650;48.840;9.162;2022-09-09T09:49:12;21.50;99.90
35541;DHT22;21650;48.840;9.162;2022-09-09T09:51:39;21.90;99.90
35541;DHT22;21650;48.840;9.162;2022-09-09T09:54:15;22.30;99.90
35541;DHT22;21650;48.840;9.162;2022-09-09T09:56:44;22.70;99.90
35541;DHT22;21650;48.840;9.162;2022-09-09T09:59:32;22.70;99.90
35541;DHT22;21650;48.840;9.162;2022-09-09T10:02:22;23.10;99.90
35541;DHT22;21650;48.840;9.162;2022-09-09T10:05:03;23.00;99.90
35541;DHT22;21650;48.840;9.162;2022-09-09T10:07:29;22.70;99.90
35541;DHT22;21650;48.840;9.162;2022-09-09T10:09:58;22.70;99.90
35541;DHT22;21650;48.840;9.162;2022-09-09T10:15:31;23.20;99.90
35541;DHT22;21650;48.840;9.162;2022-09-09T10:18:18;23.40;99.90
35541;DHT22;21650;48.840;9.162;2022-09-09T10:29:24;23.50;99.90
35541;DHT22;21650;48.840;9.162;2022-09-09T10:37:43;23.10;99.90
35541;DHT22;21650;48.840;9.162;2022-09-09T10:40:37;23.20;99.90
35541;DHT22;21650;48.840;9.162;2022-09-09T10:55:14;22.70;99.30
35541;DHT22;21650;48.840;9.162;2022-09-09T10:57:50;22.70;99.90
35541;DHT22;21650;48.840;9.162;2022-09-09T11:00:37;22.80;99.90
35541;DHT22;21650;48.840;9.162;2022-09-09T11:03:04;22.60;99.90
35541;DHT22;21650;48.840;9.162;2022-09-09T11:05:54;22.70;99.90
35541;DHT22;21650;48.840;9.162;2022-09-09T11:08:26;22.10;99.90
35541;DHT22;21650;48.840;9.162;2022-09-09T11:11:02;21.30;99.90
35541;DHT22;21650;48.840;9.162;2022-09-09T11:14:09;21.00;99.90
35541;DHT22;21650;48.840;9.162;2022-09-09T11:16:56;20.70;99.90
35541;DHT22;21650;48.840;9.162;2022-09-09T11:19:33;19.50;99.90
35541;DHT22;21650;48.840;9.162;2022-09-09T11:22:15;18.80;99.90
35541;DHT22;21650;48.840;9.162;2022-09-09T11:24:47;18.50;99.90
35541;DHT22;21650;48.840;9.162;2022-09-09T11:27:29;18.40;99.90
35541;DHT22;21650;48.840;9.162;2022-09-09T11:30:18;18.40;99.90
35541;DHT22;21650;48.840;9.162;2022-09-09T11:38:34;18.70;99.90
35541;DHT22;21650;48.840;9.162;2022-09-09T11:41:05;19.10;99.90
35541;DHT22;21650;48.840;9.162;2022-09-09T11:43:53;19.30;99.90
35541;DHT22;21650;48.840;9.162;2022-09-09T11:46:22;19.60;99.90
35541;DHT22;21650;48.840;9.162;2022-09-09T11:48:59;19.70;99.90
35541;DHT22;21650;48.840;9.162;2022-09-09T11:51:30;19.50;99.90
35541;DHT22;21650;48.840;9.162;2022-09-09T11:56:41;19.40;99.90
35541;DHT22;21650;48.840;9.162;2022-09-09T11:59:28;19.60;99.90
35541;DHT22;21650;48.840;9.162;2022-09-09T12:04:41;19.50;99.90
35541;DHT22;21650;48.840;9.162;2022-09-09T12:12:35;20.10;99.90
35541;DHT22;21650;48.840;9.162;2022-09-09T12:17:44;21.00;99.90
35541;DHT22;21650;48.840;9.162;2022-09-09T12:31:05;22.20;99.90
35541;DHT22;21650;48.840;9.162;2022-09-09T12:33:39;22.40;99.90
35541;DHT22;21650;48.840;9.162;2022-09-09T12:36:21;22.40;99.90
35541;DHT22;21650;48.840;9.162;2022-09-09T12:38:49;22.50;99.90
35541;DHT22;21650;48.840;9.162;2022-09-09T12:41:24;22.60;99.90
35541;DHT22;21650;48.840;9.162;2022-09-09T12:43:51;22.40;99.90
35541;DHT22;21650;48.840;9.162;2022-09-09T12:46:36;22.70;99.90
35541;DHT22;21650;48.840;9.162;2022-09-09T12:49:03;22.90;99.90
35541;DHT22;21650;48.840;9.162;2022-09-09T12:51:31;23.00;99.90
35541;DHT22;21650;48.840;9.162;2022-09-09T12:53:58;22.80;99.90
35541;DHT22;21650;48.840;9.162;2022-09-09T12:56:32;23.10;99.90
35541;DHT22;21650;48.840;9.162;2022-09-09T12:58:58;23.20;99.90
35541;DHT22;21650;48.840;9.162;2022-09-09T13:01:29;23.10;99.80
35541;DHT22;21650;48.840;9.162;2022-09-09T13:03:56;23.00;99.90
35541;DHT22;21650;48.840;9.162;2022-09-09T13:06:28;22.90;99.80
35541;DHT22;21650;48.840;9.162;2022-09-09T13:08:56;23.40;99.80
35541;DHT22;21650;48.840;9.162;2022-09-09T13:13:56;22.70;99.50
35541;DHT22;21650;48.840;9.162;2022-09-09T13:16:30;22.20;99.90
35541;DHT22;21650;48.840;9.162;2022-09-09T13:19:01;22.60;99.90
35541;DHT22;21650;48.840;9.162;2022-09-09T13:21:32;23.00;99.90
35541;DHT22;21650;48.840;9.162;2022-09-09T13:23:58;23.20;99.60
35541;DHT22;21650;48.840;9.162;2022-09-09T13:26:29;23.00;99.10
35541;DHT22;21650;48.840;9.162;2022-09-09T13:29:07;22.60;99.10
35541;DHT22;21650;48.840;9.162;2022-09-09T13:31:36;22.60;99.70
35541;DHT22;21650;48.840;9.162;2022-09-09T13:34:12;23.20;99.90
35541;DHT22;21650;48.840;9.162;2022-09-09T13:36:38;23.30;99.80
35541;DHT22;21650;48.840;9.162;2022-09-09T13:39:05;23.20;99.50
35541;DHT22;21650;48.840;9.162;2022-09-09T13:41:36;23.60;99.20
35541;DHT22;21650;48.840;9.162;2022-09-09T13:44:03;23.50;98.50
35541;DHT22;21650;48.840;9.162;2022-09-09T13:46:39;23.80;99.60
35541;DHT22;21650;48.840;9.162;2022-09-09T13:51:41;23.20;99.20
35541;DHT22;21650;48.840;9.162;2022-09-09T13:54:10;22.60;98.70
35541;DHT22;21650;48.840;9.162;2022-09-09T13:56:37;22.50;99.90
35541;DHT22;21650;48.840;9.162;2022-09-09T13:59:05;22.50;99.90
35541;DHT22;21650;48.840;9.162;2022-09-09T14:01:31;22.70;99.90
35541;DHT22;21650;48.840;9.162;2022-09-09T14:03:58;23.60;99.60
35541;DHT22;21650;48.840;9.162;2022-09-09T14:06:24;24.10;95.60
35541;DHT22;21650;48.840;9.162;2022-09-09T14:08:50;24.40;95.90
35541;DHT22;21650;48.840;9.162;2022-09-09T14:11:16;24.60;94.90
35541;DHT22;21650;48.840;9.162;2022-09-09T14:13:42;24.00;95.30
35541;DHT22;21650;48.840;9.162;2022-09-09T14:16:08;23.80;95.50
35541;DHT22;21650;48.840;9.162;2022-09-09T14:18:33;24.10;97.00
35541;DHT22;21650;48.840;9.162;2022-09-09T14:20:59;24.70;96.20
35541;DHT22;21650;48.840;9.162;2022-09-09T14:23:25;24.70;95.40
35541;DHT22;21650;48.840;9.162;2022-09-09T14:25:51;24.90;95.70
35541;DHT22;21650;48.840;9.162;2022-09-09T14:28:17;24.30;95.10
35541;DHT22;21650;48.840;9.162;2022-09-09T14:30:43;23.90;94.90
35541;DHT22;21650;48.840;9.162;2022-09-09T14:33:15;23.50;95.40
35541;DHT22;21650;48.840;9.162;2022-09-09T14:35:41;23.10;95.10
35541;DHT22;21650;48.840;9.162;2022-09-09T14:38:08;23.60;96.20
35541;DHT22;21650;48.840;9.162;2022-09-09T14:40:35;23.40;96.20
35541;DHT22;21650;48.840;9.162;2022-09-09T14:43:01;23.00;95.40
35541;DHT22;21650;48.840;9.162;2022-09-09T14:45:27;23.00;95.60
35541;DHT22;21650;48.840;9.162;2022-09-09T14:47:53;23.20;95.50
35541;DHT22;21650;48.840;9.162;2022-09-09T14:50:20;23.60;95.50
35541;DHT22;21650;48.840;9.162;2022-09-09T14:52:47;24.00;95.20
35541;DHT22;21650;48.840;9.162;2022-09-09T14:55:13;24.20;94.10
35541;DHT22;21650;48.840;9.162;2022-09-09T14:57:39;23.80;94.30
35541;DHT22;21650;48.840;9.162;2022-09-09T15:00:07;23.40;94.60
35541;DHT22;21650;48.840;9.162;2022-09-09T15:02:33;23.30;94.40
35541;DHT22;21650;48.840;9.162;2022-09-09T15:04:59;23.40;94.60
35541;DHT22;21650;48.840;9.162;2022-09-09T15:07:25;23.20;94.90
35541;DHT22;21650;48.840;9.162;2022-09-09T15:09:52;22.80;95.00
35541;DHT22;21650;48.840;9.162;2022-09-09T15:12:18;22.80;96.00
35541;DHT22;21650;48.840;9.162;2022-09-09T15:14:47;22.70;95.50
35541;DHT22;21650;48.840;9.162;2022-09-09T15:17:13;22.40;95.70
35541;DHT22;21650;48.840;9.162;2022-09-09T15:19:39;22.10;95.40
35541;DHT22;21650;48.840;9.162;2022-09-09T15:22:05;22.00;95.40
35541;DHT22;21650;48.840;9.162;2022-09-09T15:24:32;21.90;95.50
35541;DHT22;21650;48.840;9.162;2022-09-09T15:26:57;21.70;95.40
35541;DHT22;21650;48.840;9.162;2022-09-09T15:29:24;21.60;95.30
35541;DHT22;21650;48.840;9.162;2022-09-09T15:31:49;21.50;96.60
35541;DHT22;21650;48.840;9.162;2022-09-09T15:34:15;21.60;96.70
35541;DHT22;21650;48.840;9.162;2022-09-09T15:36:42;21.60;96.30
35541;DHT22;21650;48.840;9.162;2022-09-09T15:39:10;21.40;96.30
35541;DHT22;21650;48.840;9.162;2022-09-09T15:41:42;21.40;96.10
35541;DHT22;21650;48.840;9.162;2022-09-09T15:44:10;21.40;96.90
35541;DHT22;21650;48.840;9.162;2022-09-09T15:46:49;21.40;96.70
35541;DHT22;21650;48.840;9.162;2022-09-09T15:49:16;21.40;97.50
35541;DHT22;21650;48.840;9.162;2022-09-09T15:51:51;21.30;96.60
35541;DHT22;21650;48.840;9.162;2022-09-09T15:54:19;21.30;97.50
35541;DHT22;21650;48.840;9.162;2022-09-09T15:56:47;21.20;97.80
35541;DHT22;21650;48.840;9.162;2022-09-09T15:59:14;21.10;97.30
35541;DHT22;21650;48.840;9.162;2022-09-09T16:01:40;21.00;98.20
35541;DHT22;21650;48.840;9.162;2022-09-09T16:04:07;21.00;97.90
35541;DHT22;21650;48.840;9.162;2022-09-09T16:06:33;21.00;98.10
35541;DHT22;21650;48.840;9.162;2022-09-09T16:08:59;21.00;98.20
35541;DHT22;21650;48.840;9.162;2022-09-09T16:11:31;21.00;98.00
35541;DHT22;21650;48.840;9.162;2022-09-09T16:13:58;21.00;98.10
35541;DHT22;21650;48.840;9.162;2022-09-09T16:16:28;20.90;98.30
35541;DHT22;21650;48.840;9.162;2022-09-09T16:18:56;20.90;98.10
35541;DHT22;21650;48.840;9.162;2022-09-09T16:23:55;20.80;98.20
35541;DHT22;21650;48.840;9.162;2022-09-09T16:26:22;20.80;98.60
35541;DHT22;21650;48.840;9.162;2022-09-09T16:28:48;20.20;97.60
35541;DHT22;21650;48.840;9.162;2022-09-09T16:31:17;19.60;98.60
35541;DHT22;21650;48.840;9.162;2022-09-09T16:33:43;19.30;98.30
35541;DHT22;21650;48.840;9.162;2022-09-09T16:36:15;19.00;99.00
35541;DHT22;21650;48.840;9.162;2022-09-09T16:38:41;18.80;99.80
35541;DHT22;21650;48.840;9.162;2022-09-09T16:41:09;18.60;99.90
35541;DHT22;21650;48.840;9.162;2022-09-09T16:43:35;18.50;99.90
35541;DHT22;21650;48.840;9.162;2022-09-09T16:46:02;18.50;99.90
35541;DHT22;21650;48.840;9.162;2022-09-09T16:48:33;18.50;99.90
35541;DHT22;21650;48.840;9.162;2022-09-09T16:53:40;18.50;99.90
35541;DHT22;21650;48.840;9.162;2022-09-09T16:56:09;18.50;99.90
35541;DHT22;21650;48.840;9.162;2022-09-09T16:58:35;18.40;99.90
35541;DHT22;21650;48.840;9.162;2022-09-09T17:01:01;18.20;99.90
35541;DHT22;21650;48.840;9.162;2022-09-09T17:03:28;18.10;99.90
35541;DHT22;21650;48.840;9.162;2022-09-09T17:05:54;17.90;99.90
35541;DHT22;21650;48.840;9.162;2022-09-09T17:08:20;17.80;99.90
35541;DHT22;21650;48.840;9.162;2022-09-09T17:10:45;17.80;99.90
35541;DHT22;21650;48.840;9.162;2022-09-09T17:13:13;17.70;99.90
35541;DHT22;21650;48.840;9.162;2022-09-09T17:15:40;17.70;99.90
35541;DHT22;21650;48.840;9.162;2022-09-09T17:18:11;17.50;99.90
35541;DHT22;21650;48.840;9.162;2022-09-09T17:20:38;17.50;99.90
35541;DHT22;21650;48.840;9.162;2022-09-09T17:23:04;17.60;99.90
35541;DHT22;21650;48.840;9.162;2022-09-09T17:25:29;17.60;99.90
35541;DHT22;21650;48.840;9.162;2022-09-09T17:27:55;17.60;99.90
35541;DHT22;21650;48.840;9.162;2022-09-09T17:30:20;17.50;99.90
35541;DHT22;21650;48.840;9.162;2022-09-09T17:32:46;17.50;99.90
35541;DHT22;21650;48.840;9.162;2022-09-09T17:35:12;17.40;99.90
35541;DHT22;21650;48.840;9.162;2022-09-09T17:37:38;17.40;99.90
35541;DHT22;21650;48.840;9.162;2022-09-09T17:40:04;17.40;99.90
35541;DHT22;21650;48.840;9.162;2022-09-09T17:42:30;17.40;99.90
35541;DHT22;21650;48.840;9.162;2022-09-09T17:44:56;17.50;99.90
35541;DHT22;21650;48.840;9.162;2022-09-09T17:47:21;17.60;99.90
35541;DHT22;21650;48.840;9.162;2022-09-09T17:49:47;17.60;99.90
35541;DHT22;21650;48.840;9.162;2022-09-09T17:52:13;17.60;99.90
35541;DHT22;21650;48.840;9.162;2022-09-09T17:54:40;17.60;99.90
35541;DHT22;21650;48.840;9.162;2022-09-09T17:57:06;17.50;99.90